Time;durP1;ratioP1;P1;durP2;ratioP2;P2;SDS_P1;SDS_P2;PMS_P1;PMS_P2;Temp;Humidity;BMP_temperature;BMP_pressure;BME280_temperature;BME280_humidity;BME280_pressure;Samples;Min_cycle;Max_cycle;Signal;HPM_P1;HPM_P2
2021/01/10 00:00:05;;;;;;;11.13;6.40;;;-0.20;99.90;;;;;;5049113;28;20182;-81
2021/01/10 00:02:31;;;;;;;6.83;5.50;;;-0.20;99.90;;;;;;5050781;28;20265;-80
2021/01/10 00:04:56;;;;;;;6.43;5.07;;;-0.10;99.90;;;;;;5052299;28;20288;-80
2021/01/10 00:07:23;;;;;;;5.53;4.47;;;-0.20;99.90;;;;;;5050324;28;20182;-79
2021/01/10 00:09:49;;;;;;;6.97;4.47;;;-0.30;99.90;;;;;;5050890;28;20201;-80
2021/01/10 00:12:19;;;;;;;6.80;5.23;;;-0.20;99.90;;;;;;5052006;28;20187;-80
2021/01/10 00:14:45;;;;;;;10.87;6.07;;;-0.20;99.90;;;;;;5050232;28;20582;-79
2021/01/10 00:17:10;;;;;;;5.83;3.97;;;-0.20;99.90;;;;;;5051102;28;20205;-78
2021/01/10 00:19:36;;;;;;;7.10;4.73;;;-0.20;99.90;;;;;;5050048;28;20186;-78
2021/01/10 00:22:02;;;;;;;9.07;5.57;;;-0.20;99.90;;;;;;5047029;28;20183;-78
2021/01/10 00:24:27;;;;;;;7.27;5.40;;;-0.20;99.90;;;;;;5047242;28;20186;-79
2021/01/10 00:26:53;;;;;;;7.27;4.57;;;-0.20;99.90;;;;;;5046315;28;20205;-79
2021/01/10 00:29:18;;;;;;;8.20;5.67;;;-0.20;99.90;;;;;;5047792;28;20225;-80
2021/01/10 00:31:44;;;;;;;4.13;2.97;;;-0.20;99.90;;;;;;5049509;28;20190;-78
2021/01/10 00:34:09;;;;;;;6.37;4.13;;;-0.20;99.90;;;;;;5047898;28;21119;-76
2021/01/10 00:36:37;;;;;;;8.17;5.43;;;-0.20;99.90;;;;;;5047664;28;20711;-79
2021/01/10 00:39:06;;;;;;;12.17;8.87;;;-0.20;99.90;;;;;;5049000;28;20186;-78
2021/01/10 00:41:38;;;;;;;9.67;6.83;;;-0.20;99.90;;;;;;5049162;28;20190;-79
2021/01/10 00:44:04;;;;;;;5.77;4.43;;;-0.30;99.90;;;;;;5048544;28;20232;-80
2021/01/10 00:46:34;;;;;;;9.37;4.00;;;-0.30;99.90;;;;;;5046929;28;20210;-76
2021/01/10 00:49:00;;;;;;;5.23;3.73;;;-0.30;99.90;;;;;;5047468;28;20190;-79
2021/01/10 00:51:26;;;;;;;4.07;3.67;;;-0.30;99.90;;;;;;5048209;28;20198;-76
2021/01/10 00:53:52;;;;;;;4.83;3.60;;;-0.20;99.90;;;;;;5049069;28;20190;-81
2021/01/10 00:56:17;;;;;;;5.57;3.33;;;-0.30;99.90;;;;;;5046804;28;20214;-82
2021/01/10 00:58:43;;;;;;;8.17;4.53;;;-0.30;99.90;;;;;;5047651;28;20200;-79
2021/01/10 01:01:09;;;;;;;4.00;2.67;;;-0.30;99.90;;;;;;5049238;28;20189;-77
2021/01/10 01:03:35;;;;;;;4.53;3.10;;;-0.30;99.90;;;;;;5047307;28;20190;-79
2021/01/10 01:06:01;;;;;;;3.90;2.33;;;-0.40;99.90;;;;;;5046722;28;20218;-80
2021/01/10 01:08:26;;;;;;;3.80;2.73;;;-0.40;99.90;;;;;;5048671;28;20201;-80
2021/01/10 01:10:52;;;;;;;4.87;3.60;;;-0.30;99.90;;;;;;5047632;28;20220;-80
2021/01/10 01:13:18;;;;;;;5.47;3.60;;;-0.30;99.90;;;;;;5047479;28;21093;-81
2021/01/10 01:15:44;;;;;;;3.63;2.87;;;-0.30;99.90;;;;;;5046398;28;21101;-82
2021/01/10 01:18:10;;;;;;;3.60;3.30;;;-0.20;99.90;;;;;;5047510;28;20225;-78
2021/01/10 01:20:36;;;;;;;4.13;3.47;;;-0.20;99.90;;;;;;5047448;28;20190;-77
2021/01/10 01:23:03;;;;;;;3.57;3.10;;;-0.20;99.90;;;;;;5047596;28;20236;-77
2021/01/10 01:25:29;;;;;;;4.67;3.07;;;-0.30;99.90;;;;;;5047030;28;20217;-79
2021/01/10 01:27:55;;;;;;;3.17;2.30;;;-0.30;99.90;;;;;;5048889;28;20186;-80
2021/01/10 01:30:20;;;;;;;3.67;2.80;;;-0.30;99.90;;;;;;5047257;28;20276;-78
2021/01/10 01:32:46;;;;;;;6.70;3.87;;;-0.30;99.90;;;;;;5047221;28;20632;-77
2021/01/10 01:35:12;;;;;;;3.37;2.80;;;-0.30;99.90;;;;;;5047085;28;20214;-80
2021/01/10 01:37:38;;;;;;;5.17;3.37;;;-0.30;99.90;;;;;;5047046;28;20225;-80
2021/01/10 01:40:10;;;;;;;4.03;2.83;;;-0.30;99.90;;;;;;5063741;28;20187;-80
2021/01/10 01:42:36;;;;;;;3.30;2.67;;;-0.30;99.90;;;;;;5047024;28;20186;-79
2021/01/10 01:45:05;;;;;;;3.13;2.40;;;-0.40;99.90;;;;;;5047015;28;20274;-77
2021/01/10 01:47:32;;;;;;;3.67;3.23;;;-0.30;99.90;;;;;;5046777;28;20194;-79
2021/01/10 01:49:58;;;;;;;3.57;2.87;;;-0.30;99.90;;;;;;5046906;28;20384;-80
2021/01/10 01:52:23;;;;;;;4.47;2.90;;;-0.30;99.90;;;;;;5048422;28;20809;-79
2021/01/10 01:54:49;;;;;;;2.37;2.17;;;-0.30;99.90;;;;;;5046963;28;20711;-81
2021/01/10 01:57:15;;;;;;;3.93;2.70;;;-0.40;99.90;;;;;;5046182;28;20668;-78
2021/01/10 01:59:40;;;;;;;3.27;2.97;;;-0.40;99.90;;;;;;5046786;28;20189;-81
2021/01/10 02:02:07;;;;;;;4.20;3.03;;;-0.40;99.90;;;;;;5048138;28;20189;-78
2021/01/10 02:04:54;;;;;;;4.23;3.40;;;-0.40;99.90;;;;;;5047117;28;20320;-80
2021/01/10 02:07:27;;;;;;;3.13;2.57;;;-0.40;99.90;;;;;;5046744;28;20182;-79
2021/01/10 02:10:13;;;;;;;3.77;3.00;;;-0.20;99.90;;;;;;5046614;28;20320;-82
2021/01/10 02:12:49;;;;;;;3.13;2.77;;;-0.30;99.90;;;;;;5062856;28;20856;-77
2021/01/10 02:15:19;;;;;;;3.43;2.87;;;-0.30;99.90;;;;;;5045787;28;20206;-79
2021/01/10 02:17:49;;;;;;;5.20;3.70;;;-0.30;99.90;;;;;;5045860;28;20233;-83
2021/01/10 02:20:38;;;;;;;5.67;3.23;;;-0.30;99.90;;;;;;5048252;28;20195;-78
2021/01/10 02:23:19;;;;;;;4.63;3.53;;;-0.30;99.90;;;;;;5046127;28;20648;-80
2021/01/10 02:25:47;;;;;;;4.17;3.17;;;-0.30;99.90;;;;;;5046518;28;20202;-79
2021/01/10 02:28:21;;;;;;;3.23;2.93;;;-0.40;99.90;;;;;;5046316;28;20194;-79
2021/01/10 02:30:47;;;;;;;3.00;2.40;;;-0.40;99.90;;;;;;5054452;28;20189;-77
2021/01/10 02:33:37;;;;;;;9.10;4.23;;;-0.40;99.90;;;;;;5047854;28;20700;-81
2021/01/10 02:36:08;;;;;;;4.37;3.50;;;-0.40;99.90;;;;;;5046791;28;20270;-80
2021/01/10 02:38:42;;;;;;;4.60;2.83;;;-0.40;99.90;;;;;;5047424;28;20170;-81
2021/01/10 02:41:49;;;;;;;5.10;3.07;;;-0.30;99.90;;;;;;5046506;28;20225;-83
2021/01/10 02:44:34;;;;;;;2.50;2.20;;;-0.40;99.90;;;;;;5045744;28;20197;-79
2021/01/10 02:47:00;;;;;;;3.07;2.50;;;-0.30;99.90;;;;;;5047286;28;20192;-80
2021/01/10 02:49:26;;;;;;;3.60;2.73;;;-0.40;99.90;;;;;;5047311;28;20186;-79
2021/01/10 02:51:52;;;;;;;3.17;2.80;;;-0.40;99.90;;;;;;5046101;28;20190;-79
2021/01/10 02:54:19;;;;;;;2.77;2.57;;;-0.40;99.90;;;;;;5047328;28;20801;-77
2021/01/10 02:57:22;;;;;;;4.33;3.03;;;-0.30;99.90;;;;;;5046308;28;20210;-77
2021/01/10 02:59:50;;;;;;;3.63;2.80;;;-0.30;99.90;;;;;;5041197;28;20666;-77
2021/01/10 03:02:17;;;;;;;3.17;2.43;;;-0.30;99.90;;;;;;5045001;28;21212;-81
2021/01/10 03:04:43;;;;;;;3.43;2.47;;;-0.30;99.90;;;;;;5045850;28;20217;-81
2021/01/10 03:07:09;;;;;;;3.10;2.47;;;-0.30;99.90;;;;;;5044539;28;20201;-79
2021/01/10 03:09:35;;;;;;;3.10;2.63;;;-0.30;99.90;;;;;;5046379;28;20197;-80
2021/01/10 03:12:14;;;;;;;3.43;2.63;;;-0.30;99.90;;;;;;5046129;28;20182;-81
2021/01/10 03:14:44;;;;;;;3.17;2.70;;;-0.30;99.90;;;;;;5045382;28;20691;-82
2021/01/10 03:17:27;;;;;;;3.03;1.67;;;-0.40;99.90;;;;;;5046076;28;20687;-79
2021/01/10 03:19:53;;;;;;;2.63;2.37;;;-0.40;99.90;;;;;;5046698;28;20226;-78
2021/01/10 03:22:18;;;;;;;2.83;2.57;;;-0.30;99.90;;;;;;5045466;28;20214;-79
2021/01/10 03:24:44;;;;;;;5.30;2.90;;;-0.30;99.90;;;;;;5047555;28;20726;-80
2021/01/10 03:27:09;;;;;;;3.60;2.90;;;-0.40;99.90;;;;;;5062331;28;20289;-81
2021/01/10 03:29:35;;;;;;;3.20;2.13;;;-0.50;99.90;;;;;;5045103;28;20561;-80
2021/01/10 03:32:01;;;;;;;3.43;3.13;;;-0.50;99.90;;;;;;5045590;28;20913;-80
2021/01/10 03:34:26;;;;;;;3.83;3.10;;;-0.50;99.90;;;;;;5045480;28;20258;-79
2021/01/10 03:36:52;;;;;;;4.40;2.90;;;-0.50;99.90;;;;;;5045025;28;20240;-79
2021/01/10 03:39:18;;;;;;;3.60;2.57;;;-0.50;99.90;;;;;;5046008;28;20190;-77
2021/01/10 03:41:43;;;;;;;3.30;2.57;;;-0.50;99.90;;;;;;5046738;28;20190;-80
2021/01/10 03:44:09;;;;;;;3.23;2.87;;;-0.60;99.90;;;;;;5045539;28;20283;-78
2021/01/10 03:46:34;;;;;;;3.63;2.60;;;-0.60;99.90;;;;;;5046598;28;20225;-80
2021/01/10 03:49:00;;;;;;;6.33;3.20;;;-0.60;99.90;;;;;;5045556;28;20540;-78
2021/01/10 03:51:27;;;;;;;2.60;2.40;;;-0.60;99.90;;;;;;5045544;28;20194;-80
2021/01/10 03:53:52;;;;;;;3.20;2.30;;;-0.50;99.90;;;;;;5045224;28;20201;-79
2021/01/10 03:56:18;;;;;;;4.30;3.43;;;-0.60;99.90;;;;;;5045003;28;20218;-78
2021/01/10 03:58:44;;;;;;;3.10;2.73;;;-0.50;99.90;;;;;;5050681;28;20182;-79
2021/01/10 04:01:09;;;;;;;2.67;2.23;;;-0.50;99.90;;;;;;5049260;28;20186;-80
2021/01/10 04:03:35;;;;;;;5.97;3.37;;;-0.50;99.90;;;;;;5049326;28;20186;-79
2021/01/10 04:06:00;;;;;;;2.77;2.33;;;-0.50;99.90;;;;;;5049885;28;20622;-77
2021/01/10 04:08:26;;;;;;;4.27;2.97;;;-0.50;99.90;;;;;;5050135;28;20189;-77
2021/01/10 04:10:51;;;;;;;8.57;3.10;;;-0.50;99.90;;;;;;5049562;28;20198;-79
2021/01/10 04:13:17;;;;;;;5.90;3.13;;;-0.50;99.90;;;;;;5049409;28;20348;-79
2021/01/10 04:15:42;;;;;;;2.73;2.30;;;-0.60;99.90;;;;;;5048326;28;20225;-79
2021/01/10 04:18:08;;;;;;;2.93;2.43;;;-0.70;99.90;;;;;;5051026;28;20182;-77
2021/01/10 04:20:34;;;;;;;3.03;2.10;;;-0.60;99.90;;;;;;5049206;28;20239;-79
2021/01/10 04:22:59;;;;;;;3.20;2.53;;;-0.60;99.90;;;;;;5051053;28;20544;-79
2021/01/10 04:25:25;;;;;;;2.63;2.43;;;-0.60;99.90;;;;;;5050542;28;20279;-78
2021/01/10 04:27:50;;;;;;;3.27;2.97;;;-0.60;99.90;;;;;;5051334;28;20245;-78
2021/01/10 04:30:16;;;;;;;2.23;2.03;;;-0.60;99.90;;;;;;5048845;28;20205;-79
2021/01/10 04:32:42;;;;;;;4.10;2.97;;;-0.60;99.90;;;;;;5048589;28;20194;-79
2021/01/10 04:35:08;;;;;;;3.90;3.50;;;-0.60;99.90;;;;;;5049546;28;20324;-79
2021/01/10 04:37:33;;;;;;;7.07;4.97;;;-0.60;99.90;;;;;;5049566;28;20206;-79
2021/01/10 04:39:59;;;;;;;4.17;3.13;;;-0.60;99.90;;;;;;5048507;28;20190;-79
2021/01/10 04:42:26;;;;;;;6.13;4.53;;;-0.60;99.90;;;;;;5065671;28;20190;-80
2021/01/10 04:44:53;;;;;;;3.97;3.23;;;-0.60;99.90;;;;;;5047859;28;20228;-80
2021/01/10 04:47:20;;;;;;;5.33;4.03;;;-0.60;99.90;;;;;;5048899;28;20616;-79
2021/01/10 04:49:46;;;;;;;10.03;8.07;;;-0.60;99.90;;;;;;5048601;28;20186;-79
2021/01/10 04:52:17;;;;;;;7.03;5.23;;;-0.60;99.90;;;;;;5050346;28;20239;-79
2021/01/10 04:54:45;;;;;;;7.17;5.03;;;-0.60;99.90;;;;;;5050390;28;20217;-79
2021/01/10 04:57:12;;;;;;;9.17;7.03;;;-0.60;99.90;;;;;;5047829;28;20297;-79
2021/01/10 04:59:40;;;;;;;5.57;3.90;;;-0.60;99.90;;;;;;5050547;28;20189;-77
2021/01/10 05:02:08;;;;;;;3.20;2.50;;;-0.60;99.90;;;;;;5049059;28;20197;-80
2021/01/10 05:04:34;;;;;;;13.23;6.40;;;-0.70;99.90;;;;;;5048954;28;20182;-80
2021/01/10 05:07:00;;;;;;;36.53;18.77;;;-0.70;99.90;;;;;;5048996;28;20205;-78
2021/01/10 05:09:26;;;;;;;7.10;4.77;;;-0.70;99.90;;;;;;5048010;28;20194;-79
2021/01/10 05:11:52;;;;;;;6.43;4.43;;;-0.60;99.90;;;;;;5048940;28;20263;-78
2021/01/10 05:14:18;;;;;;;5.53;3.70;;;-0.70;99.90;;;;;;5049249;28;20197;-79
2021/01/10 05:16:45;;;;;;;3.53;2.77;;;-0.70;99.90;;;;;;5047655;28;20218;-79
2021/01/10 05:19:10;;;;;;;4.20;2.47;;;-0.70;99.90;;;;;;5048881;28;20174;-78
2021/01/10 05:21:41;;;;;;;5.57;3.77;;;-0.70;99.90;;;;;;5047622;28;20672;-80
2021/01/10 05:24:07;;;;;;;4.23;3.20;;;-0.70;99.90;;;;;;5048884;28;20275;-80
2021/01/10 05:26:34;;;;;;;4.90;4.17;;;-0.70;99.90;;;;;;5046881;28;20684;-80
2021/01/10 05:29:07;;;;;;;3.60;3.27;;;-0.70;99.90;;;;;;5048413;28;20193;-80
2021/01/10 05:31:35;;;;;;;3.53;2.57;;;-0.60;99.90;;;;;;5048623;28;20197;-80
2021/01/10 05:34:01;;;;;;;2.57;2.33;;;-0.70;99.90;;;;;;5048689;28;20182;-80
2021/01/10 05:36:32;;;;;;;4.87;3.43;;;-0.70;99.90;;;;;;5047452;28;20591;-79
2021/01/10 05:39:13;;;;;;;3.73;3.17;;;-0.80;99.90;;;;;;5045656;28;20185;-81
2021/01/10 05:41:42;;;;;;;6.13;4.27;;;-0.80;99.90;;;;;;5063562;28;20202;-78
2021/01/10 05:44:07;;;;;;;10.67;6.00;;;-0.80;99.90;;;;;;5048233;28;20187;-79
2021/01/10 05:46:33;;;;;;;6.20;5.10;;;-0.80;99.90;;;;;;5047525;28;20224;-79
2021/01/10 05:48:59;;;;;;;6.23;4.30;;;-0.80;99.90;;;;;;5046845;28;20269;-80
2021/01/10 05:51:28;;;;;;;7.13;5.20;;;-0.80;99.90;;;;;;5046515;28;20277;-79
2021/01/10 05:53:54;;;;;;;14.67;9.63;;;-0.80;99.90;;;;;;5046630;28;20198;-77
2021/01/10 05:56:20;;;;;;;6.77;5.03;;;-0.80;99.90;;;;;;5046838;28;20829;-78
2021/01/10 05:58:54;;;;;;;18.33;10.63;;;-0.80;99.90;;;;;;5047571;28;20649;-81
2021/01/10 06:01:21;;;;;;;33.00;18.37;;;-0.80;99.90;;;;;;5047447;28;20177;-80
2021/01/10 06:03:47;;;;;;;8.87;5.97;;;-0.80;99.90;;;;;;5047418;28;20281;-78
2021/01/10 06:06:13;;;;;;;9.27;5.03;;;-0.90;99.90;;;;;;5046366;28;20702;-79
2021/01/10 06:08:40;;;;;;;14.00;9.03;;;-0.90;99.90;;;;;;5047069;28;20190;-81
2021/01/10 06:11:18;;;;;;;7.30;4.67;;;-0.90;99.90;;;;;;5062266;28;21176;-79
2021/01/10 06:13:51;;;;;;;18.50;11.13;;;-0.90;99.90;;;;;;5047079;28;20209;-79
2021/01/10 06:16:17;;;;;;;10.93;6.07;;;-0.80;99.90;;;;;;5046355;28;20210;-80
2021/01/10 06:19:04;;;;;;;12.27;7.60;;;-0.80;99.90;;;;;;5046334;28;20644;-78
2021/01/10 06:21:31;;;;;;;6.43;4.57;;;-0.70;99.90;;;;;;5046746;28;20194;-80
2021/01/10 06:23:58;;;;;;;6.23;4.23;;;-0.80;99.90;;;;;;5046866;28;20217;-79
2021/01/10 06:26:32;;;;;;;3.07;2.80;;;-0.80;99.90;;;;;;5046211;28;20205;-77
2021/01/10 06:29:00;;;;;;;4.83;4.17;;;-0.80;99.90;;;;;;5045016;28;20271;-80
2021/01/10 06:31:34;;;;;;;4.87;2.97;;;-0.80;99.90;;;;;;5046436;28;20185;-79
2021/01/10 06:34:09;;;;;;;7.20;3.57;;;-0.80;99.90;;;;;;5046195;28;20186;-79
2021/01/10 06:36:39;;;;;;;2.03;1.73;;;-0.80;99.90;;;;;;5043251;28;20209;-78
2021/01/10 06:39:08;;;;;;;4.83;2.87;;;-0.70;99.90;;;;;;5044565;28;20178;-80
2021/01/10 06:42:00;;;;;;;2.57;2.37;;;-0.70;99.90;;;;;;5045712;28;20185;-80
2021/01/10 06:44:25;;;;;;;2.63;2.13;;;-0.70;99.90;;;;;;5044873;28;20205;-80
2021/01/10 06:46:53;;;;;;;2.70;2.17;;;-0.70;99.90;;;;;;5044383;28;20189;-80
2021/01/10 06:49:20;;;;;;;2.83;2.47;;;-0.70;99.90;;;;;;5044545;28;20205;-80
2021/01/10 06:51:47;;;;;;;2.87;2.43;;;-0.80;99.90;;;;;;5044373;28;20722;-77
2021/01/10 06:54:12;;;;;;;4.07;2.57;;;-0.70;99.90;;;;;;5045707;28;20813;-78
2021/01/10 06:56:46;;;;;;;2.07;1.40;;;-0.70;99.90;;;;;;5045445;28;20213;-77
2021/01/10 06:59:12;;;;;;;1.80;1.70;;;-0.70;99.90;;;;;;5044332;28;20190;-78
2021/01/10 07:01:53;;;;;;;3.70;2.07;;;-0.70;99.90;;;;;;5043997;28;20267;-78
2021/01/10 07:04:42;;;;;;;1.80;1.70;;;-0.70;99.90;;;;;;5052686;28;20190;-78
2021/01/10 07:07:09;;;;;;;3.07;1.73;;;-0.70;99.90;;;;;;5041904;28;20194;-78
2021/01/10 07:09:54;;;;;;;2.67;2.07;;;-0.80;99.90;;;;;;5045777;28;20269;-80
2021/01/10 07:12:20;;;;;;;2.60;2.07;;;-0.80;99.90;;;;;;5045557;28;20242;-80
2021/01/10 07:14:46;;;;;;;1.50;1.30;;;-0.80;99.90;;;;;;5044187;28;20332;-78
2021/01/10 07:17:13;;;;;;;1.77;1.27;;;-0.80;99.90;;;;;;5044665;28;20296;-78
2021/01/10 07:19:40;;;;;;;2.57;1.77;;;-0.80;99.90;;;;;;5045056;28;20182;-81
2021/01/10 07:22:22;;;;;;;2.37;1.80;;;-0.80;99.90;;;;;;5044943;28;20186;-78
2021/01/10 07:24:47;;;;;;;1.27;0.90;;;-0.80;99.90;;;;;;5044366;28;20227;-76
2021/01/10 07:27:30;;;;;;;1.73;1.50;;;-0.80;99.90;;;;;;5043567;28;20182;-78
2021/01/10 07:29:57;;;;;;;2.07;1.57;;;-0.90;99.90;;;;;;5045079;28;20243;-79
2021/01/10 07:32:35;;;;;;;1.90;1.70;;;-0.90;99.90;;;;;;5049068;28;20193;-79
2021/01/10 07:35:04;;;;;;;1.80;1.57;;;-1.00;99.90;;;;;;5046408;28;20300;-77
2021/01/10 07:37:30;;;;;;;2.17;1.37;;;-0.90;99.90;;;;;;5048252;28;20304;-79
2021/01/10 07:40:07;;;;;;;1.40;1.30;;;-0.90;99.90;;;;;;5048707;28;20175;-79
2021/01/10 07:42:42;;;;;;;1.57;1.17;;;-0.90;99.90;;;;;;5048752;28;20201;-80
2021/01/10 07:45:22;;;;;;;1.67;1.40;;;-0.90;99.90;;;;;;5048143;28;20198;-80
2021/01/10 07:47:48;;;;;;;2.80;2.03;;;-0.90;99.90;;;;;;5048000;28;20215;-79
2021/01/10 07:50:17;;;;;;;3.67;1.40;;;-0.80;99.90;;;;;;5046605;28;20709;-79
2021/01/10 07:52:42;;;;;;;3.27;2.03;;;-0.80;99.90;;;;;;5048349;28;20273;-80
2021/01/10 07:55:20;;;;;;;1.17;1.13;;;-0.80;99.90;;;;;;5045755;28;20329;-78
2021/01/10 07:58:01;;;;;;;2.30;1.50;;;-0.80;99.90;;;;;;5047031;28;20284;-79
2021/01/10 08:00:32;;;;;;;2.13;1.90;;;-0.70;99.90;;;;;;5049897;28;20267;-79
2021/01/10 08:03:04;;;;;;;2.43;1.97;;;-0.70;99.90;;;;;;5057284;28;20538;-79
2021/01/10 08:05:41;;;;;;;2.07;1.47;;;-0.60;99.90;;;;;;5049065;28;20194;-79
2021/01/10 08:08:16;;;;;;;1.70;1.47;;;-0.60;99.90;;;;;;5050125;28;20230;-79
2021/01/10 08:10:52;;;;;;;2.40;1.87;;;-0.60;99.90;;;;;;5049144;28;20194;-79
2021/01/10 08:13:31;;;;;;;2.63;1.83;;;-0.50;99.90;;;;;;5048774;28;20235;-79
2021/01/10 08:16:23;;;;;;;3.00;2.03;;;-0.40;99.90;;;;;;5049014;28;20209;-79
2021/01/10 08:18:48;;;;;;;3.30;1.60;;;-0.40;99.90;;;;;;5046838;28;20195;-79
2021/01/10 08:21:16;;;;;;;4.13;3.07;;;-0.40;99.90;;;;;;5049411;28;20243;-78
2021/01/10 08:23:44;;;;;;;4.40;2.60;;;-0.40;99.90;;;;;;5048904;28;20186;-78
2021/01/10 08:26:15;;;;;;;5.47;2.40;;;-0.40;99.90;;;;;;5048307;28;20381;-79
2021/01/10 08:28:49;;;;;;;3.40;1.80;;;-0.30;99.90;;;;;;5049808;28;20296;-79
2021/01/10 08:31:17;;;;;;;2.60;2.17;;;-0.20;99.90;;;;;;5048816;28;20193;-79
2021/01/10 08:33:43;;;;;;;2.87;2.10;;;-0.20;99.90;;;;;;5049251;28;20182;-79
2021/01/10 08:36:13;;;;;;;1.37;1.27;;;-0.20;99.90;;;;;;5048811;28;20262;-78
2021/01/10 08:39:06;;;;;;;3.00;1.83;;;-0.20;99.90;;;;;;5048943;28;20197;-78
2021/01/10 08:41:36;;;;;;;2.43;1.63;;;-0.10;99.90;;;;;;5049887;28;20847;-78
2021/01/10 08:44:03;;;;;;;3.17;2.53;;;-0.20;99.90;;;;;;5049210;28;20189;-79
2021/01/10 08:46:31;;;;;;;2.10;1.70;;;-0.10;99.90;;;;;;5049297;28;20209;-80
2021/01/10 08:48:57;;;;;;;2.60;2.10;;;-0.10;99.90;;;;;;5049923;28;20186;-79
2021/01/10 08:51:32;;;;;;;1.93;1.60;;;0.00;99.90;;;;;;5048346;28;20984;-78
2021/01/10 08:54:02;;;;;;;2.90;1.80;;;0.10;99.90;;;;;;5050911;28;20188;-84
2021/01/10 08:56:30;;;;;;;3.40;1.93;;;0.20;99.90;;;;;;5048638;28;20211;-83
2021/01/10 08:58:56;;;;;;;2.73;1.97;;;0.30;99.90;;;;;;5051140;28;20616;-83
2021/01/10 09:01:24;;;;;;;3.13;2.20;;;0.30;99.90;;;;;;5050580;28;20186;-84
2021/01/10 09:04:02;;;;;;;5.50;4.07;;;0.40;99.90;;;;;;5049625;28;20208;-82
2021/01/10 09:06:46;;;;;;;2.70;2.07;;;0.40;99.90;;;;;;5048760;28;20222;-82
2021/01/10 09:09:30;;;;;;;2.80;2.43;;;0.40;99.90;;;;;;5049788;28;20193;-84
2021/01/10 09:12:01;;;;;;;2.37;1.80;;;0.40;99.90;;;;;;5048070;28;20192;-84
2021/01/10 09:14:32;;;;;;;2.37;1.67;;;0.30;99.90;;;;;;5055564;28;20194;-83
2021/01/10 09:17:00;;;;;;;1.77;1.53;;;0.30;99.90;;;;;;5050747;28;20213;-82
2021/01/10 09:19:29;;;;;;;3.37;2.17;;;0.40;99.90;;;;;;5051259;28;20285;-82
2021/01/10 09:21:55;;;;;;;2.00;1.67;;;0.60;99.90;;;;;;5051467;28;20185;-83
2021/01/10 09:24:27;;;;;;;3.37;2.13;;;0.80;99.90;;;;;;5048726;28;20174;-83
2021/01/10 09:26:52;;;;;;;3.30;2.27;;;1.00;99.90;;;;;;5049517;28;20579;-84
2021/01/10 09:29:19;;;;;;;4.03;3.07;;;1.20;99.90;;;;;;5048805;28;20254;-78
2021/01/10 09:31:49;;;;;;;2.40;1.77;;;1.40;99.90;;;;;;5049999;28;20189;-83
2021/01/10 09:34:23;;;;;;;2.23;1.77;;;1.40;99.90;;;;;;5048381;28;20175;-85
2021/01/10 09:36:48;;;;;;;2.67;2.17;;;1.40;99.90;;;;;;5048952;28;20218;-83
2021/01/10 09:39:15;;;;;;;2.73;2.40;;;1.10;99.90;;;;;;5049720;28;20182;-83
2021/01/10 09:42:11;;;;;;;3.67;2.90;;;1.10;99.90;;;;;;5045935;28;20177;-85
2021/01/10 09:44:37;;;;;;;2.83;1.83;;;1.20;99.90;;;;;;5040017;28;20198;-84
2021/01/10 09:47:03;;;;;;;2.10;1.40;;;1.30;99.90;;;;;;5043363;28;20309;-82
2021/01/10 09:49:30;;;;;;;2.10;1.60;;;1.40;99.90;;;;;;5044653;28;20667;-83
2021/01/10 09:52:01;;;;;;;2.60;2.40;;;1.50;99.90;;;;;;5044510;28;20281;-84
2021/01/10 09:54:31;;;;;;;2.67;1.77;;;1.60;99.90;;;;;;5045197;28;20189;-83
2021/01/10 09:56:59;;;;;;;4.23;2.30;;;1.60;99.90;;;;;;5043143;28;20202;-83
2021/01/10 09:59:42;;;;;;;3.63;2.00;;;1.60;99.90;;;;;;5044040;28;20607;-83
2021/01/10 10:02:10;;;;;;;3.13;2.03;;;1.60;99.90;;;;;;5043183;28;20187;-82
2021/01/10 10:04:35;;;;;;;2.90;2.37;;;1.70;99.90;;;;;;5043377;28;20206;-83
2021/01/10 10:07:02;;;;;;;2.97;2.40;;;1.80;99.90;;;;;;5043783;28;20229;-83
2021/01/10 10:09:49;;;;;;;2.77;2.57;;;1.70;99.90;;;;;;5042665;28;20555;-85
2021/01/10 10:12:15;;;;;;;3.70;2.63;;;1.90;99.90;;;;;;5044818;28;20279;-84
2021/01/10 10:14:51;;;;;;;2.43;2.23;;;1.80;99.90;;;;;;5045759;28;20647;-83
2021/01/10 10:17:18;;;;;;;3.00;2.33;;;1.90;99.90;;;;;;5049120;28;20206;-80
2021/01/10 10:19:44;;;;;;;5.03;2.40;;;1.90;99.90;;;;;;5054345;28;20524;-78
2021/01/10 10:22:30;;;;;;;4.47;3.23;;;2.00;99.90;;;;;;5050145;28;20193;-86
2021/01/10 10:24:56;;;;;;;3.17;2.40;;;2.10;99.90;;;;;;5048076;28;20747;-85
2021/01/10 10:27:24;;;;;;;2.50;1.63;;;2.20;99.90;;;;;;5048242;28;20611;-85
2021/01/10 10:29:49;;;;;;;4.03;2.70;;;2.20;99.90;;;;;;5048859;28;20189;-85
2021/01/10 10:32:19;;;;;;;3.00;2.43;;;2.10;99.90;;;;;;5048769;28;20336;-86
2021/01/10 10:34:45;;;;;;;2.50;1.83;;;2.00;99.90;;;;;;5049779;28;20293;-85
2021/01/10 10:37:11;;;;;;;2.30;1.90;;;2.10;99.90;;;;;;5046431;28;20213;-85
2021/01/10 10:39:37;;;;;;;4.43;2.47;;;2.20;99.90;;;;;;5049581;28;20265;-85
2021/01/10 10:42:04;;;;;;;4.50;2.60;;;2.30;99.90;;;;;;5050421;28;20209;-84
2021/01/10 10:44:30;;;;;;;3.57;2.37;;;2.30;99.90;;;;;;5047795;28;20190;-85
2021/01/10 10:46:57;;;;;;;3.23;2.93;;;2.40;99.90;;;;;;5048833;28;20186;-86
2021/01/10 10:49:23;;;;;;;3.90;2.70;;;2.40;99.90;;;;;;5051635;28;20718;-86
2021/01/10 10:51:48;;;;;;;3.03;2.40;;;2.50;99.90;;;;;;5050335;28;20268;-87
2021/01/10 10:54:14;;;;;;;6.03;4.27;;;2.50;99.90;;;;;;5050263;28;20531;-86
2021/01/10 10:56:41;;;;;;;3.97;3.17;;;2.50;99.90;;;;;;5050416;28;20233;-87
2021/01/10 10:59:07;;;;;;;3.67;3.07;;;2.60;99.90;;;;;;5050599;28;20182;-87
2021/01/10 11:01:41;;;;;;;6.00;3.60;;;2.70;99.90;;;;;;5050829;28;20186;-87
2021/01/10 11:04:15;;;;;;;3.50;2.17;;;2.70;99.90;;;;;;5050487;28;20235;-87
2021/01/10 11:06:40;;;;;;;4.77;3.17;;;2.60;99.90;;;;;;5049563;28;20198;-88
2021/01/10 11:09:08;;;;;;;4.73;3.17;;;2.60;99.90;;;;;;5050663;28;20189;-88
2021/01/10 11:11:37;;;;;;;4.07;3.07;;;2.70;99.90;;;;;;5050699;28;20273;-88
2021/01/10 11:14:04;;;;;;;3.83;2.67;;;2.80;99.90;;;;;;5050848;28;20690;-88
2021/01/10 11:16:30;;;;;;;4.33;2.90;;;3.00;99.90;;;;;;5051697;28;20287;-89
2021/01/10 11:18:56;;;;;;;3.23;2.37;;;3.10;99.90;;;;;;5050678;28;20206;-89
2021/01/10 11:21:35;;;;;;;4.60;3.23;;;3.10;99.90;;;;;;5050601;28;20209;-89
2021/01/10 11:24:02;;;;;;;2.53;2.03;;;3.00;99.90;;;;;;5050597;28;20170;-89
2021/01/10 11:26:28;;;;;;;4.13;3.53;;;2.80;99.90;;;;;;5050580;28;20614;-88
2021/01/10 11:28:54;;;;;;;7.33;3.47;;;2.60;99.90;;;;;;5050965;28;20237;-89
2021/01/10 11:31:22;;;;;;;4.53;3.20;;;2.50;99.90;;;;;;5050677;28;20186;-88
2021/01/10 11:33:47;;;;;;;4.00;2.43;;;2.30;99.90;;;;;;5050766;28;20179;-89
2021/01/10 11:36:13;;;;;;;4.37;3.13;;;2.10;99.90;;;;;;5050180;28;20220;-88
2021/01/10 11:38:40;;;;;;;3.17;2.77;;;2.00;99.90;;;;;;5050651;28;20201;-89
2021/01/10 11:41:08;;;;;;;4.83;3.13;;;1.80;99.90;;;;;;5050765;28;20189;-89
2021/01/10 11:43:34;;;;;;;2.90;2.47;;;1.70;99.90;;;;;;5049998;28;20250;-88
2021/01/10 11:45:59;;;;;;;4.17;3.10;;;1.70;99.90;;;;;;5050369;28;20629;-89
2021/01/10 11:48:25;;;;;;;3.33;2.40;;;1.70;99.90;;;;;;5050708;28;20182;-89
2021/01/10 11:50:50;;;;;;;4.83;2.57;;;1.80;99.90;;;;;;5050396;28;20171;-88
2021/01/10 11:53:16;;;;;;;3.47;2.73;;;2.00;99.90;;;;;;5048830;28;20182;-88
2021/01/10 11:55:42;;;;;;;4.43;3.13;;;2.10;99.90;;;;;;5048784;28;20207;-89
2021/01/10 11:58:07;;;;;;;6.77;4.27;;;2.20;99.90;;;;;;5049665;28;20763;-88
2021/01/10 12:00:33;;;;;;;3.80;2.77;;;2.30;99.90;;;;;;5049915;28;20185;-88
2021/01/10 12:03:02;;;;;;;5.53;3.73;;;2.30;99.90;;;;;;5049635;28;20281;-88
2021/01/10 12:05:27;;;;;;;4.83;3.33;;;2.30;99.90;;;;;;5049709;28;20294;-88
2021/01/10 12:07:53;;;;;;;4.93;2.80;;;2.30;99.90;;;;;;5050284;28;20265;-88
2021/01/10 12:10:19;;;;;;;4.97;3.07;;;2.40;99.90;;;;;;5047104;28;20277;-77
2021/01/10 12:12:44;;;;;;;5.00;3.43;;;2.50;99.90;;;;;;5045928;28;20189;-88
2021/01/10 12:15:10;;;;;;;4.67;3.57;;;2.60;99.90;;;;;;5050645;28;20329;-90
2021/01/10 12:17:35;;;;;;;3.63;2.73;;;2.80;99.90;;;;;;5051491;28;20638;-89
2021/01/10 12:20:06;;;;;;;4.73;3.33;;;2.90;99.90;;;;;;5053804;28;20663;-90
2021/01/10 12:22:33;;;;;;;4.93;3.40;;;2.90;99.90;;;;;;5053631;28;20543;-81
2021/01/10 12:24:58;;;;;;;5.43;3.47;;;3.00;99.90;;;;;;5053581;28;20234;-90
2021/01/10 12:27:24;;;;;;;4.80;3.27;;;3.20;99.90;;;;;;5053808;28;20221;-89
2021/01/10 12:29:49;;;;;;;4.27;2.80;;;3.20;99.90;;;;;;5053561;28;20601;-91
2021/01/10 12:32:15;;;;;;;6.00;4.20;;;3.10;99.90;;;;;;5053880;28;20261;-89
2021/01/10 12:34:41;;;;;;;3.73;3.00;;;3.00;99.90;;;;;;5053335;28;20606;-89
2021/01/10 12:37:07;;;;;;;4.40;3.10;;;2.90;99.90;;;;;;5053507;28;20210;-91
2021/01/10 12:39:41;;;;;;;5.57;3.40;;;2.70;99.90;;;;;;5053619;28;20186;-89
2021/01/10 12:42:06;;;;;;;5.07;3.10;;;2.50;99.90;;;;;;5052336;28;20324;-90
2021/01/10 12:44:32;;;;;;;4.80;3.00;;;2.30;99.90;;;;;;5051106;28;20922;-90
2021/01/10 12:46:58;;;;;;;4.20;3.13;;;2.30;99.90;;;;;;5052793;28;20716;-89
2021/01/10 12:49:23;;;;;;;4.80;3.50;;;2.20;99.90;;;;;;5052644;28;20198;-90
2021/01/10 12:51:49;;;;;;;5.23;3.93;;;2.10;99.90;;;;;;5053298;28;20271;-89
2021/01/10 12:54:15;;;;;;;3.90;2.83;;;2.00;99.90;;;;;;5052065;28;20559;-89
2021/01/10 12:56:40;;;;;;;4.70;2.93;;;1.90;99.90;;;;;;5053228;28;20210;-90
2021/01/10 12:59:06;;;;;;;3.33;2.90;;;2.00;99.90;;;;;;5052779;28;20200;-90